Time;durP1;ratioP1;P1;durP2;ratioP2;P2;SDS_P1;SDS_P2;PMS_P1;PMS_P2;Temp;Humidity;BMP_temperature;BMP_pressure;BME280_temperature;BME280_humidity;BME280_pressure;Samples;Min_cycle;Max_cycle;Signal;HPM_P1;HPM_P2
2023/11/30 00:00:52;;;;;;;16.65;11.90;;;5.70;99.90;;;4.95;100.00;99505.53;4185007;28;20485;-76
2023/11/30 00:02:53;;;;;;;16.25;11.55;;;5.80;99.90;;;4.96;100.00;99506.31;4152906;28;20030;-76
2023/11/30 00:04:54;;;;;;;18.08;13.43;;;5.70;99.90;;;4.94;100.00;99506.47;4152115;28;20048;-76
2023/11/30 00:06:55;;;;;;;20.02;12.43;;;5.70;99.90;;;4.94;100.00;99506.47;4153129;28;20057;-76
2023/11/30 00:08:57;;;;;;;17.25;12.85;;;5.80;99.90;;;4.93;100.00;99490.94;4168261;28;20037;-76
2023/11/30 00:10:58;;;;;;;18.55;12.63;;;5.80;99.90;;;4.90;100.00;99491.25;4153258;28;20132;-76
2023/11/30 00:12:59;;;;;;;18.23;12.50;;;5.80;99.90;;;4.93;100.00;99496.16;4151950;28;20555;-76
2023/11/30 00:14:59;;;;;;;16.65;13.02;;;5.80;99.90;;;4.92;100.00;99492.75;4152939;28;20054;-76
2023/11/30 00:17:02;;;;;;;20.25;13.23;;;5.80;99.90;;;4.92;100.00;99502.38;4152829;28;20026;-76
2023/11/30 00:19:02;;;;;;;16.38;11.82;;;5.80;99.90;;;4.94;100.00;99497.81;4141674;28;20037;-76
2023/11/30 00:21:04;;;;;;;16.58;11.70;;;5.80;99.90;;;4.95;100.00;99491.63;4152789;28;20030;-76
2023/11/30 00:23:05;;;;;;;17.13;12.15;;;5.80;99.90;;;4.92;100.00;99486.72;4153073;28;20029;-76
2023/11/30 00:25:06;;;;;;;16.98;12.05;;;5.80;99.90;;;4.95;100.00;99491.63;4153004;28;20026;-76
2023/11/30 00:27:07;;;;;;;22.00;14.35;;;5.70;99.90;;;4.91;100.00;99487.66;4152927;28;20037;-76
2023/11/30 00:29:08;;;;;;;23.85;13.75;;;5.70;99.90;;;4.92;100.00;99492.75;4135239;28;20033;-76
2023/11/30 00:31:09;;;;;;;20.25;14.20;;;5.70;99.90;;;4.92;100.00;99487.53;4152739;28;20044;-76
2023/11/30 00:33:10;;;;;;;16.05;12.43;;;5.70;99.90;;;4.93;100.00;99485.72;4153000;28;20054;-76
2023/11/30 00:35:11;;;;;;;21.67;15.15;;;5.70;99.90;;;4.91;100.00;99478.03;4152812;28;20025;-76
2023/11/30 00:37:12;;;;;;;19.85;13.63;;;5.70;99.90;;;4.95;100.00;99483.78;4151611;28;20026;-76
2023/11/30 00:39:13;;;;;;;19.42;14.57;;;5.80;99.90;;;4.96;100.00;99480.19;4152879;28;20077;-76
2023/11/30 00:41:15;;;;;;;22.48;14.77;;;5.80;99.90;;;4.95;100.00;99475.94;4135237;28;20030;-76
2023/11/30 00:43:16;;;;;;;24.35;16.10;;;5.80;99.90;;;4.98;100.00;99466.03;4151536;28;20030;-76
2023/11/30 00:45:17;;;;;;;21.80;15.40;;;5.80;99.90;;;4.96;100.00;99456.66;4152336;28;20022;-76
2023/11/30 00:47:18;;;;;;;22.42;15.05;;;5.80;99.90;;;4.97;100.00;99460.94;4152338;28;20439;-76
2023/11/30 00:49:19;;;;;;;25.90;16.50;;;5.80;99.90;;;4.97;100.00;99459.16;4167686;28;20029;-76
2023/11/30 00:51:20;;;;;;;23.50;14.35;;;5.80;99.90;;;4.98;100.00;99452.97;4152476;28;20091;-76
2023/11/30 00:53:20;;;;;;;19.88;15.00;;;5.80;99.90;;;4.97;100.00;99446.09;4152390;28;20397;-76
2023/11/30 00:55:21;;;;;;;21.58;15.38;;;5.80;99.90;;;4.97;100.00;99438.25;4152546;28;20026;-76
2023/11/30 00:57:22;;;;;;;18.25;13.88;;;5.80;99.90;;;4.97;100.00;99440.03;4151521;28;20022;-76
2023/11/30 00:59:23;;;;;;;19.98;12.95;;;5.80;99.90;;;4.96;100.00;99444.44;4151333;28;20026;-76
2023/11/30 01:01:24;;;;;;;21.25;16.58;;;5.80;99.90;;;4.96;100.00;99441.00;4152162;28;20030;-76
2023/11/30 01:03:25;;;;;;;20.55;15.93;;;5.70;99.90;;;4.95;100.00;99426.31;4184105;28;20079;-76
2023/11/30 01:05:26;;;;;;;19.95;14.45;;;5.80;99.90;;;4.92;100.00;99424.81;4152421;28;20114;-76
2023/11/30 01:07:27;;;;;;;20.50;14.50;;;5.70;99.90;;;4.96;100.00;99425.31;4151118;28;20034;-76
2023/11/30 01:09:27;;;;;;;20.10;14.07;;;5.70;99.90;;;4.95;100.00;99428.91;4152261;28;20022;-76
2023/11/30 01:11:28;;;;;;;21.20;14.63;;;5.70;99.90;;;4.95;100.00;99423.69;4152451;28;20375;-76
2023/11/30 01:13:29;;;;;;;22.05;14.57;;;5.70;99.90;;;4.94;100.00;99424.66;4183553;28;20439;-76
2023/11/30 01:15:30;;;;;;;20.88;14.80;;;5.70;99.90;;;4.93;100.00;99415.16;4144949;28;20544;-76
2023/11/30 01:17:31;;;;;;;19.80;14.10;;;5.70;99.90;;;4.93;100.00;99409.94;4151980;28;20509;-76
2023/11/30 01:19:32;;;;;;;20.33;15.55;;;5.70;99.90;;;4.95;100.00;99398.38;4167454;28;20024;-76
2023/11/30 01:21:32;;;;;;;19.63;14.52;;;5.70;99.90;;;4.95;100.00;99398.38;4152374;28;20030;-76
2023/11/30 01:23:33;;;;;;;20.98;15.55;;;5.80;99.90;;;4.95;100.00;99400.19;4152196;28;20026;-76
2023/11/30 01:25:34;;;;;;;23.27;15.48;;;5.80;99.90;;;4.96;100.00;99389.56;4152262;28;20048;-76
2023/11/30 01:27:35;;;;;;;21.90;14.75;;;5.80;99.90;;;4.97;100.00;99380.75;4151122;28;20029;-76
2023/11/30 01:29:36;;;;;;;18.75;13.73;;;5.80;99.90;;;4.97;100.00;99388.59;4152358;28;20034;-76
2023/11/30 01:31:36;;;;;;;21.70;15.73;;;5.80;99.90;;;4.97;100.00;99390.38;4183570;28;20032;-76
2023/11/30 01:33:37;;;;;;;18.77;14.43;;;5.80;99.90;;;4.95;100.00;99381.88;4151101;28;20540;-76
2023/11/30 01:35:38;;;;;;;24.10;15.90;;;5.80;99.90;;;4.97;100.00;99387.78;4150628;28;20030;-76
2023/11/30 01:37:39;;;;;;;21.02;15.43;;;5.80;99.90;;;4.98;100.00;99384.19;4152256;28;20038;-76
2023/11/30 01:39:40;;;;;;;21.17;15.00;;;5.80;99.90;;;4.96;100.00;99375.66;4152172;28;20035;-76
2023/11/30 01:41:41;;;;;;;21.33;15.70;;;5.80;99.90;;;4.92;100.00;99372.56;4151794;28;20026;-76
2023/11/30 01:43:42;;;;;;;23.55;15.25;;;5.80;99.90;;;4.94;100.00;99386.28;4150662;28;20030;-76
2023/11/30 01:45:43;;;;;;;22.08;16.80;;;5.70;99.90;;;4.93;100.00;99374.19;4152227;28;20034;-76
2023/11/30 01:47:44;;;;;;;25.25;17.65;;;5.70;99.90;;;4.92;100.00;99375.19;4151953;28;20033;-76
2023/11/30 01:49:45;;;;;;;23.67;16.63;;;5.80;99.90;;;4.93;100.00;99378.59;4150871;28;20064;-76
2023/11/30 01:51:48;;;;;;;22.45;16.33;;;5.70;99.90;;;4.91;100.00;99367.47;4150290;28;20710;-76
2023/11/30 01:53:49;;;;;;;25.60;18.20;;;5.70;99.90;;;4.91;100.00;99367.47;4181242;28;20527;-76
2023/11/30 01:55:50;;;;;;;25.13;17.10;;;5.70;99.90;;;4.90;100.00;99368.44;4145109;28;20022;-76
2023/11/30 01:57:51;;;;;;;25.15;18.05;;;5.70;99.90;;;4.92;100.00;99374.34;4151217;28;20105;-76
2023/11/30 01:59:52;;;;;;;27.63;18.85;;;5.80;99.90;;;4.91;100.00;99370.91;4155025;28;20197;-76
2023/11/30 02:01:53;;;;;;;24.67;16.70;;;5.80;99.90;;;4.93;100.00;99362.91;4137523;28;20046;-76
2023/11/30 02:03:54;;;;;;;24.55;16.67;;;5.80;99.90;;;4.93;100.00;99357.69;4151081;28;20393;-76
2023/11/30 02:05:55;;;;;;;24.25;16.75;;;5.80;99.90;;;4.93;100.00;99358.50;4150241;28;20084;-76
2023/11/30 02:07:56;;;;;;;23.23;15.85;;;5.80;99.90;;;4.92;100.00;99350.84;4155149;28;20034;-76
2023/11/30 02:09:57;;;;;;;22.05;15.77;;;5.80;99.90;;;4.93;100.00;99360.28;4153912;28;20046;-76
2023/11/30 02:11:58;;;;;;;24.45;16.45;;;5.80;99.90;;;4.93;100.00;99357.69;4155010;28;20401;-76
2023/11/30 02:13:58;;;;;;;26.65;16.17;;;5.80;99.90;;;4.92;100.00;99356.06;4154861;28;20403;-76
2023/11/30 02:15:59;;;;;;;22.63;15.45;;;5.70;99.90;;;4.88;100.00;99342.47;4154620;28;20042;-76
2023/11/30 02:18:00;;;;;;;22.13;15.82;;;5.70;99.90;;;4.88;100.00;99339.88;4153597;28;20428;-76
2023/11/30 02:20:02;;;;;;;20.05;14.25;;;5.70;99.90;;;4.92;100.00;99345.63;4153705;28;20057;-76
2023/11/30 02:22:03;;;;;;;18.25;14.57;;;5.70;99.90;;;4.89;100.00;99341.53;4154797;28;20113;-76
2023/11/30 02:24:04;;;;;;;21.98;14.75;;;5.70;99.90;;;4.86;100.00;99338.38;4167060;28;20029;-76
2023/11/30 02:26:06;;;;;;;20.00;14.25;;;5.70;99.90;;;4.84;100.00;99335.91;4153808;28;20111;-76
2023/11/30 02:28:07;;;;;;;20.15;15.38;;;5.70;99.90;;;4.87;100.00;99353.06;4154807;28;20069;-76
2023/11/30 02:30:08;;;;;;;20.35;14.40;;;5.70;99.90;;;4.81;100.00;99338.84;4154729;28;20034;-76
2023/11/30 02:32:09;;;;;;;20.70;14.93;;;5.70;99.90;;;4.79;100.00;99347.81;4153185;28;20068;-76
2023/11/30 02:34:10;;;;;;;20.55;13.90;;;5.60;99.90;;;4.77;100.00;99353.19;4154745;28;20022;-76
2023/11/30 02:36:12;;;;;;;22.73;15.98;;;5.60;99.90;;;4.71;100.00;99345.16;4153414;28;20045;-76
2023/11/30 02:38:13;;;;;;;28.05;17.15;;;5.60;99.90;;;4.74;100.00;99342.22;4153424;28;20018;-76
2023/11/30 02:40:14;;;;;;;21.73;15.82;;;5.60;99.90;;;4.68;100.00;99322.78;4153394;28;20429;-76
2023/11/30 02:42:15;;;;;;;21.33;15.45;;;5.50;99.90;;;4.61;100.00;99318.28;4154702;28;20022;-76
2023/11/30 02:44:16;;;;;;;18.23;14.10;;;5.50;99.90;;;4.58;100.00;99323.81;4148240;28;20018;-76
2023/11/30 02:46:17;;;;;;;18.90;14.20;;;5.40;99.90;;;4.54;100.00;99318.06;4148535;28;20060;-76
2023/11/30 02:48:18;;;;;;;21.00;12.80;;;5.40;99.90;;;4.55;100.00;99339.78;4153237;28;20030;-76
2023/11/30 02:50:19;;;;;;;17.08;13.07;;;5.40;99.90;;;4.56;100.00;99347.50;4153365;28;20156;-76
2023/11/30 02:52:20;;;;;;;16.25;13.07;;;5.40;99.90;;;4.58;100.00;99336.88;4153827;28;20030;-76
2023/11/30 02:54:21;;;;;;;23.25;15.68;;;5.40;99.90;;;4.59;100.00;99328.06;4154267;28;20025;-76
2023/11/30 02:56:22;;;;;;;17.95;14.77;;;5.40;99.90;;;4.53;100.00;99316.47;4154014;28;20041;-76
2023/11/30 02:58:23;;;;;;;21.98;14.60;;;5.40;99.90;;;4.49;100.00;99302.06;4140186;28;20018;-76
2023/11/30 03:00:24;;;;;;;21.25;14.60;;;5.40;99.90;;;4.48;100.00;99314.28;4153298;28;20432;-76
2023/11/30 03:02:25;;;;;;;20.15;14.55;;;5.40;99.90;;;4.46;100.00;99307.59;4154107;28;20025;-76
2023/11/30 03:04:26;;;;;;;22.30;15.85;;;5.40;99.90;;;4.42;100.00;99299.22;4146697;28;20027;-76
2023/11/30 03:06:26;;;;;;;21.90;15.98;;;5.30;99.90;;;4.46;100.00;99302.38;4152462;28;20435;-76
2023/11/30 03:08:27;;;;;;;22.42;14.68;;;5.30;99.90;;;4.40;100.00;99298.56;4153919;28;20392;-76
2023/11/30 03:10:28;;;;;;;19.92;13.93;;;5.30;99.90;;;4.37;100.00;99300.66;4152837;28;20034;-76
2023/11/30 03:12:29;;;;;;;22.52;14.23;;;5.30;99.90;;;4.35;100.00;99310.44;4152892;28;20030;-76
2023/11/30 03:14:30;;;;;;;21.92;14.23;;;5.30;99.90;;;4.26;100.00;99303.53;4152539;28;20036;-76
2023/11/30 03:16:30;;;;;;;21.95;13.60;;;5.20;99.90;;;4.18;100.00;99311.28;4153479;28;20046;-76
2023/11/30 03:18:31;;;;;;;18.38;13.77;;;5.10;99.90;;;4.07;100.00;99317.53;4154004;28;20029;-76
2023/11/30 03:20:35;;;;;;;20.23;13.77;;;5.00;99.90;;;3.98;100.00;99320.22;4152732;28;20026;-76
2023/11/30 03:22:36;;;;;;;19.65;13.20;;;4.90;99.90;;;3.88;100.00;99313.28;4153835;28;20030;-76
2023/11/30 03:24:37;;;;;;;20.70;13.75;;;4.80;99.90;;;3.83;100.00;99299.03;4153835;28;20037;-76
2023/11/30 03:26:38;;;;;;;17.13;12.52;;;4.70;99.90;;;3.76;100.00;99292.81;4153888;28;20064;-76
2023/11/30 03:28:38;;;;;;;27.35;18.63;;;4.70;99.90;;;3.73;100.00;99295.72;4153787;28;20034;-76
2023/11/30 03:30:39;;;;;;;29.33;18.05;;;4.60;99.90;;;3.67;100.00;99293.69;4153667;28;20063;-76
2023/11/30 03:32:40;;;;;;;27.50;16.10;;;4.60;99.90;;;3.63;100.00;99293.16;4152462;28;20079;-76
2023/11/30 03:34:41;;;;;;;23.63;16.77;;;4.50;99.90;;;3.54;100.00;99290.59;4128336;28;20037;-76
2023/11/30 03:36:42;;;;;;;22.05;15.07;;;4.50;99.90;;;3.52;100.00;99306.41;4147408;28;20529;-76
2023/11/30 03:38:43;;;;;;;26.90;16.05;;;4.40;99.90;;;3.46;100.00;99307.00;4153522;28;20096;-76
2023/11/30 03:40:43;;;;;;;22.00;14.85;;;4.40;99.90;;;3.40;100.00;99312.78;4153699;28;20026;-76
2023/11/30 03:42:44;;;;;;;20.98;13.63;;;4.30;99.90;;;3.34;100.00;99313.38;4168652;28;20033;-76
2023/11/30 03:44:45;;;;;;;20.23;12.88;;;4.20;99.90;;;3.26;100.00;99316.69;4153462;28;20397;-76
2023/11/30 03:46:46;;;;;;;19.95;13.43;;;4.20;99.90;;;3.23;100.00;99316.13;4135765;28;20041;-76
2023/11/30 03:48:47;;;;;;;20.42;12.73;;;4.10;99.90;;;3.20;100.00;99317.25;4140326;28;20042;-76
2023/11/30 03:50:48;;;;;;;18.60;13.25;;;4.10;99.90;;;3.15;100.00;99322.09;4184893;28;20403;-76
2023/11/30 03:52:48;;;;;;;17.45;12.65;;;4.00;99.90;;;3.09;100.00;99314.84;4152843;28;20485;-76
2023/11/30 03:54:49;;;;;;;18.08;12.05;;;4.00;99.90;;;3.08;100.00;99312.38;4152098;28;20032;-76
2023/11/30 03:56:50;;;;;;;18.05;12.38;;;4.00;99.90;;;3.06;100.00;99314.31;4168273;28;20026;-76
2023/11/30 03:58:51;;;;;;;20.63;13.45;;;4.00;99.90;;;3.04;100.00;99311.84;4153440;28;20161;-76
2023/11/30 04:00:52;;;;;;;19.95;13.75;;;3.90;99.90;;;3.02;100.00;99311.16;4152176;28;20028;-76
2023/11/30 04:02:52;;;;;;;18.75;14.07;;;3.90;99.90;;;2.98;100.00;99309.00;4152851;28;20030;-76
2023/11/30 04:04:53;;;;;;;19.02;12.48;;;3.90;99.90;;;2.96;100.00;99308.28;4153236;28;20025;-75
2023/11/30 04:06:54;;;;;;;20.92;13.57;;;3.90;99.90;;;2.91;100.00;99300.94;4153169;28;20033;-75
2023/11/30 04:08:55;;;;;;;18.48;12.50;;;3.80;99.90;;;2.90;100.00;99294.06;4153242;28;20021;-76
2023/11/30 04:10:56;;;;;;;19.58;12.45;;;3.80;99.90;;;2.93;100.00;99296.38;4151984;28;20069;-76
2023/11/30 04:12:57;;;;;;;18.02;13.05;;;3.80;99.90;;;2.93;100.00;99291.19;4153276;28;20030;-76
2023/11/30 04:14:58;;;;;;;16.80;11.27;;;3.80;99.90;;;2.89;100.00;99296.81;4184496;28;20067;-76
2023/11/30 04:16:58;;;;;;;17.70;13.02;;;3.80;99.90;;;2.87;100.00;99309.97;4151720;28;20064;-76
2023/11/30 04:19:00;;;;;;;15.93;11.77;;;3.80;99.90;;;2.85;100.00;99296.28;4184692;28;20025;-76
2023/11/30 04:21:00;;;;;;;20.45;13.65;;;3.80;99.90;;;2.85;100.00;99296.28;4150960;28;20026;-76
2023/11/30 04:23:01;;;;;;;19.20;12.93;;;3.80;99.90;;;2.86;100.00;99305.75;4153156;28;20083;-76
2023/11/30 04:25:02;;;;;;;20.48;11.45;;;3.80;99.90;;;2.90;100.00;99314.91;4151843;28;20018;-76
2023/11/30 04:27:03;;;;;;;14.90;10.73;;;3.80;99.90;;;2.92;100.00;99307.78;4152934;28;20058;-76
2023/11/30 04:29:04;;;;;;;17.60;11.45;;;3.80;99.90;;;2.95;100.00;99312.72;4168032;28;20600;-76
2023/11/30 04:31:06;;;;;;;17.45;11.88;;;3.80;99.90;;;2.97;100.00;99308.16;4135274;28;20022;-76
2023/11/30 04:33:07;;;;;;;19.60;12.98;;;3.80;99.90;;;2.93;100.00;99311.22;4152912;28;20065;-76
2023/11/30 04:35:08;;;;;;;16.35;11.98;;;3.80;99.90;;;2.91;100.00;99306.13;4151600;28;20040;-76
2023/11/30 04:37:09;;;;;;;18.55;11.80;;;3.80;99.90;;;2.86;100.00;99303.16;4152783;28;20475;-76
2023/11/30 04:39:11;;;;;;;17.33;11.50;;;3.70;99.90;;;2.78;100.00;99295.19;4135321;28;20033;-76
2023/11/30 04:41:12;;;;;;;19.48;12.43;;;3.70;99.90;;;2.76;100.00;99308.38;4184167;28;20021;-76
2023/11/30 04:43:13;;;;;;;16.60;11.73;;;3.60;99.90;;;2.73;100.00;99300.03;4152721;28;20029;-76
2023/11/30 04:45:14;;;;;;;17.98;12.68;;;3.60;99.90;;;2.73;100.00;99294.81;4151584;28;20033;-76
2023/11/30 04:47:15;;;;;;;16.15;12.13;;;3.60;99.90;;;2.74;100.00;99299.06;4152531;28;20061;-76
2023/11/30 04:49:16;;;;;;;18.27;12.30;;;3.60;99.90;;;2.70;100.00;99290.72;4152659;28;20113;-75
2023/11/30 04:51:16;;;;;;;20.25;12.88;;;3.50;99.90;;;2.70;100.00;99277.69;4139905;28;20038;-75
2023/11/30 04:53:17;;;;;;;18.90;12.07;;;3.50;99.90;;;2.69;100.00;99277.81;4150942;28;20026;-76
2023/11/30 04:55:18;;;;;;;18.83;12.10;;;3.50;99.90;;;2.70;100.00;99274.28;4152665;28;20447;-76
2023/11/30 04:57:19;;;;;;;16.33;11.13;;;3.60;99.90;;;2.69;100.00;99270.00;4151261;28;20516;-76
2023/11/30 04:59:20;;;;;;;15.55;11.52;;;3.50;99.90;;;2.69;100.00;99262.19;4152492;28;20442;-76
2023/11/30 05:01:20;;;;;;;13.75;10.27;;;3.60;99.90;;;2.72;100.00;99261.91;4150851;28;20021;-75
2023/11/30 05:03:21;;;;;;;20.65;12.57;;;3.60;99.90;;;2.73;100.00;99263.56;4152534;28;20029;-75
2023/11/30 05:05:22;;;;;;;17.17;10.85;;;3.60;99.90;;;2.74;100.00;99255.63;4152477;28;20030;-76
2023/11/30 05:07:23;;;;;;;18.75;12.07;;;3.60;99.90;;;2.71;100.00;99258.53;4152346;28;20104;-76
2023/11/30 05:09:24;;;;;;;15.43;11.98;;;3.50;99.90;;;2.66;100.00;99275.50;4152339;28;20034;-76
2023/11/30 05:11:25;;;;;;;15.13;10.70;;;3.50;99.90;;;2.62;100.00;99276.78;4184008;28;20031;-76
2023/11/30 05:13:27;;;;;;;16.30;11.02;;;3.50;99.90;;;2.54;100.00;99266.25;4151246;28;20481;-76
2023/11/30 05:15:28;;;;;;;28.83;11.90;;;3.40;99.90;;;2.52;100.00;99262.94;4183896;28;20106;-76
2023/11/30 05:17:28;;;;;;;17.35;11.63;;;3.40;99.90;;;2.47;100.00;99255.56;4151038;28;20105;-75
2023/11/30 05:19:29;;;;;;;15.90;11.32;;;3.40;99.90;;;2.43;100.00;99258.59;4151257;28;20022;-76
2023/11/30 05:21:30;;;;;;;15.40;10.93;;;3.30;99.90;;;2.38;100.00;99250.38;4152365;28;20021;-75
2023/11/30 05:23:31;;;;;;;18.85;11.52;;;3.30;99.90;;;2.37;100.00;99256.53;4139719;28;20054;-75
2023/11/30 05:25:32;;;;;;;14.23;10.40;;;3.30;99.90;;;2.39;100.00;99271.06;4147693;28;20029;-76
2023/11/30 05:27:33;;;;;;;14.80;10.13;;;3.30;99.90;;;2.35;100.00;99264.50;4183845;28;20028;-75
2023/11/30 05:29:33;;;;;;;15.23;10.20;;;3.30;99.90;;;2.34;100.00;99268.06;4151191;28;20022;-76
2023/11/30 05:31:34;;;;;;;15.75;10.32;;;3.20;99.90;;;2.33;100.00;99269.00;4152196;28;20022;-76
2023/11/30 05:33:35;;;;;;;14.77;10.93;;;3.20;99.90;;;2.28;100.00;99263.41;4155561;28;20025;-76
2023/11/30 05:35:36;;;;;;;13.52;9.73;;;3.20;99.90;;;2.28;100.00;99262.59;4155361;28;20025;-76
2023/11/30 05:37:37;;;;;;;15.98;11.05;;;3.20;99.90;;;2.25;100.00;99261.09;4154543;28;20038;-76
2023/11/30 05:39:37;;;;;;;16.52;9.32;;;3.10;99.90;;;2.24;100.00;99264.63;4154343;28;20026;-76
2023/11/30 05:41:38;;;;;;;14.60;9.32;;;3.10;99.90;;;2.28;100.00;99271.22;4186997;28;20086;-76
2023/11/30 05:43:39;;;;;;;16.17;10.63;;;3.20;99.90;;;2.29;100.00;99272.88;4155323;28;20052;-76
2023/11/30 05:45:40;;;;;;;12.70;9.13;;;3.20;99.90;;;2.31;100.00;99280.53;4155498;28;20022;-76
2023/11/30 05:47:41;;;;;;;14.93;10.55;;;3.20;99.90;;;2.35;100.00;99280.13;4155207;28;20489;-75
2023/11/30 05:49:42;;;;;;;14.50;10.55;;;3.20;99.90;;;2.42;100.00;99275.19;4154257;28;20037;-76
2023/11/30 05:51:42;;;;;;;14.88;10.13;;;3.30;99.90;;;2.48;100.00;99277.22;4154602;28;20618;-76
2023/11/30 05:53:43;;;;;;;14.85;10.80;;;3.40;99.90;;;2.49;100.00;99279.66;4155395;28;20393;-76
2023/11/30 05:55:44;;;;;;;15.65;10.38;;;3.40;99.90;;;2.57;100.00;99279.78;4154106;28;20022;-76
2023/11/30 05:57:45;;;;;;;18.55;11.07;;;3.40;99.90;;;2.62;100.00;99284.56;4155177;28;20022;-76
2023/11/30 05:59:46;;;;;;;14.75;10.27;;;3.50;99.90;;;2.67;100.00;99285.78;4154918;28;20030;-76
2023/11/30 06:01:47;;;;;;;15.32;10.18;;;3.50;99.90;;;2.69;100.00;99289.06;4155138;28;20110;-75
2023/11/30 06:03:47;;;;;;;17.13;10.30;;;3.60;99.90;;;2.74;100.00;99286.06;4155189;28;20021;-75
2023/11/30 06:05:48;;;;;;;14.75;10.38;;;3.60;99.90;;;2.77;100.00;99284.00;4170091;28;20029;-75
2023/11/30 06:07:49;;;;;;;14.02;9.38;;;3.60;99.90;;;2.82;100.00;99280.94;4152523;28;20497;-76
2023/11/30 06:09:50;;;;;;;12.98;8.95;;;3.70;99.90;;;2.90;100.00;99281.03;4153719;28;20030;-76
2023/11/30 06:11:52;;;;;;;14.07;9.98;;;3.70;99.90;;;2.95;100.00;99278.03;4155145;28;20028;-76
2023/11/30 06:13:52;;;;;;;14.27;9.82;;;3.80;99.90;;;3.01;100.00;99264.44;4155070;28;20080;-76
2023/11/30 06:15:54;;;;;;;15.25;11.00;;;3.90;99.90;;;3.06;100.00;99252.59;4154492;28;20038;-76
2023/11/30 06:17:55;;;;;;;16.13;10.65;;;3.90;99.90;;;3.13;100.00;99258.91;4153856;28;20030;-76
2023/11/30 06:19:56;;;;;;;12.75;9.63;;;4.00;99.90;;;3.18;100.00;99251.44;4153776;28;20028;-76
2023/11/30 06:21:57;;;;;;;13.63;8.90;;;4.00;99.90;;;3.26;100.00;99263.72;4153581;28;20026;-76
2023/11/30 06:23:58;;;;;;;14.38;10.48;;;4.10;99.90;;;3.29;100.00;99263.44;4153605;28;20066;-76
2023/11/30 06:25:59;;;;;;;17.48;9.95;;;4.10;99.90;;;3.33;100.00;99260.41;4154742;28;20033;-76
2023/11/30 06:27:59;;;;;;;13.55;9.27;;;4.10;99.90;;;3.34;100.00;99263.84;4154804;28;20034;-76
2023/11/30 06:30:00;;;;;;;13.65;8.75;;;4.20;99.90;;;3.33;100.00;99256.97;4153518;28;20091;-75
2023/11/30 06:32:02;;;;;;;12.68;9.05;;;4.20;99.90;;;3.30;100.00;99255.50;4153328;28;20026;-76
2023/11/30 06:34:03;;;;;;;14.13;9.18;;;4.20;99.90;;;3.33;100.00;99265.63;4186323;28;20519;-76
2023/11/30 06:36:05;;;;;;;16.52;9.48;;;4.20;99.90;;;3.37;100.00;99266.16;4153443;28;20025;-76
2023/11/30 06:38:06;;;;;;;15.75;10.63;;;4.20;99.90;;;3.39;100.00;99263.41;4154803;28;20104;-76
2023/11/30 06:40:08;;;;;;;13.88;10.77;;;4.20;99.90;;;3.43;100.00;99264.75;4153473;28;20084;-76
2023/11/30 06:42:09;;;;;;;14.88;9.75;;;4.30;99.90;;;3.48;100.00;99263.34;4153445;28;20072;-76
2023/11/30 06:44:10;;;;;;;13.18;10.10;;;4.30;99.90;;;3.52;100.00;99269.91;4153887;28;20064;-76
2023/11/30 06:46:23;;;;;;;15.95;11.75;;;4.30;99.90;;;3.54;100.00;99267.13;4154294;28;20056;-76
2023/11/30 06:48:25;;;;;;;15.43;10.52;;;4.40;99.90;;;3.59;100.00;99272.72;4153222;28;20030;-76
2023/11/30 06:50:26;;;;;;;16.25;11.57;;;4.40;99.90;;;3.58;100.00;99271.94;4154522;28;20021;-76
2023/11/30 06:52:27;;;;;;;14.88;11.32;;;4.40;99.90;;;3.62;100.00;99275.03;4152611;28;20041;-76
2023/11/30 06:54:28;;;;;;;18.65;10.57;;;4.50;99.90;;;3.64;100.00;99278.34;4153190;28;20021;-76
2023/11/30 06:56:28;;;;;;;18.92;10.32;;;4.50;99.90;;;3.65;100.00;99280.78;4154093;28;20026;-76
2023/11/30 06:58:29;;;;;;;15.10;10.90;;;4.50;99.90;;;3.69;100.00;99281.31;4153192;28;20485;-76
2023/11/30 07:00:31;;;;;;;16.60;11.85;;;4.50;99.90;;;3.70;100.00;99283.75;4154376;28;20028;-76
2023/11/30 07:02:32;;;;;;;14.60;11.20;;;4.50;99.90;;;3.73;100.00;99283.47;4152909;28;20022;-76
2023/11/30 07:04:32;;;;;;;17.48;11.60;;;4.60;99.90;;;3.78;100.00;99285.63;4154099;28;20018;-76
2023/11/30 07:06:33;;;;;;;16.98;10.65;;;4.60;99.90;;;3.80;100.00;99278.47;4154170;28;20036;-76
2023/11/30 07:08:34;;;;;;;15.68;10.52;;;4.60;99.90;;;3.82;100.00;99279.16;4185790;28;20021;-75
2023/11/30 07:10:35;;;;;;;18.67;12.93;;;4.70;99.90;;;3.84;100.00;99282.44;4148740;28;20027;-76
2023/11/30 07:12:36;;;;;;;17.38;12.20;;;4.70;99.90;;;3.87;100.00;99289.97;4151281;28;20026;-76
2023/11/30 07:14:37;;;;;;;15.65;11.63;;;4.70;99.90;;;3.92;100.00;99288.56;4153126;28;20063;-75
2023/11/30 07:16:38;;;;;;;18.67;13.77;;;4.80;99.90;;;3.93;100.00;99281.53;4152309;28;20050;-76
2023/11/30 07:18:40;;;;;;;18.20;12.52;;;4.80;99.90;;;3.99;100.00;99288.78;4152846;28;20026;-76
2023/11/30 07:20:41;;;;;;;15.65;12.35;;;4.80;99.90;;;4.04;100.00;99288.31;4152569;28;20026;-76
2023/11/30 07:22:43;;;;;;;18.48;13.75;;;4.90;99.90;;;4.05;100.00;99292.56;4154220;28;20026;-76
2023/11/30 07:24:47;;;;;;;17.30;13.25;;;4.90;99.90;;;4.07;100.00;99288.84;4152817;28;20033;-76
2023/11/30 07:26:48;;;;;;;19.17;13.77;;;4.90;99.90;;;4.06;100.00;99289.78;4153946;28;20070;-76
2023/11/30 07:28:49;;;;;;;19.80;14.50;;;4.90;99.90;;;4.09;100.00;99289.50;4152586;28;20515;-76
2023/11/30 07:30:50;;;;;;;17.67;12.75;;;4.90;99.90;;;4.13;100.00;99290.03;4152659;28;20026;-76
2023/11/30 07:32:53;;;;;;;19.00;13.10;;;5.00;99.90;;;4.12;100.00;99289.19;4152694;28;20030;-76
2023/11/30 07:34:54;;;;;;;19.13;13.23;;;5.00;99.90;;;4.15;100.00;99299.34;4152649;28;20030;-76
2023/11/30 07:36:55;;;;;;;18.45;12.82;;;5.00;99.90;;;4.19;100.00;99299.84;4152310;28;20444;-76
2023/11/30 07:38:55;;;;;;;18.70;13.90;;;5.00;99.90;;;4.21;100.00;99297.94;4153711;28;20489;-76
2023/11/30 07:40:56;;;;;;;19.58;13.63;;;5.10;99.90;;;4.22;100.00;99300.38;4153871;28;20681;-76
2023/11/30 07:42:57;;;;;;;16.95;12.80;;;5.10;99.90;;;4.21;100.00;99300.56;4153707;28;20467;-76
2023/11/30 07:44:59;;;;;;;21.77;13.30;;;5.10;99.90;;;4.25;100.00;99305.31;4152325;28;20037;-76
2023/11/30 07:47:00;;;;;;;17.20;11.77;;;5.10;99.90;;;4.23;100.00;99288.97;4153486;28;20097;-75
2023/11/30 07:49:01;;;;;;;17.27;12.30;;;5.10;99.90;;;4.28;100.00;99296.34;4153573;28;20025;-76
2023/11/30 07:51:02;;;;;;;17.15;11.35;;;5.10;99.90;;;4.27;100.00;99284.28;4149009;28;20022;-76
2023/11/30 07:53:07;;;;;;;15.38;10.60;;;5.10;99.90;;;4.30;100.00;99290.00;4153094;28;20034;-76
2023/11/30 07:55:09;;;;;;;16.20;10.95;;;5.20;99.90;;;4.30;100.00;99284.78;4152985;28;20026;-76
2023/11/30 07:57:10;;;;;;;15.75;11.05;;;5.20;99.90;;;4.33;100.00;99276.66;4167875;28;20026;-76
2023/11/30 07:59:12;;;;;;;13.23;9.93;;;5.20;99.90;;;4.34;100.00;99277.47;4146756;28;20076;-76
2023/11/30 08:01:14;;;;;;;14.40;9.63;;;5.20;99.90;;;4.31;100.00;99273.38;4149283;28;20515;-76
2023/11/30 08:03:15;;;;;;;13.68;9.65;;;5.20;99.90;;;4.36;100.00;99271.13;4140372;28;20022;-76
2023/11/30 08:05:16;;;;;;;12.80;9.55;;;5.20;99.90;;;4.41;100.00;99275.91;4152195;28;20026;-76
2023/11/30 08:07:18;;;;;;;14.57;10.02;;;5.20;99.90;;;4.42;100.00;99274.94;4153015;28;20030;-76
2023/11/30 08:09:20;;;;;;;11.80;9.23;;;5.30;99.90;;;4.46;100.00;99276.25;4145676;28;20093;-76
2023/11/30 08:11:20;;;;;;;13.32;8.82;;;5.30;99.90;;;4.48;100.00;99277.72;4153313;28;20048;-76
2023/11/30 08:13:21;;;;;;;12.73;9.18;;;5.30;99.90;;;4.51;100.00;99265.38;4151896;28;20038;-76
2023/11/30 08:15:22;;;;;;;12.65;9.23;;;5.40;99.90;;;4.55;100.00;99264.88;4151987;28;20054;-76
2023/11/30 08:17:23;;;;;;;12.23;9.38;;;5.40;99.90;;;4.60;100.00;99273.06;4167844;28;20033;-76
2023/11/30 08:19:24;;;;;;;12.73;9.65;;;5.40;99.90;;;4.63;100.00;99267.53;4184038;28;20025;-76
2023/11/30 08:21:24;;;;;;;12.30;9.10;;;5.50;99.90;;;4.68;100.00;99272.31;4143402;28;20406;-76
2023/11/30 08:23:25;;;;;;;10.15;8.13;;;5.50;99.90;;;4.70;100.00;99279.03;4153018;28;20447;-76